Time;durP1;ratioP1;P1;durP2;ratioP2;P2;SDS_P1;SDS_P2;PMS_P1;PMS_P2;Temp;Humidity;BMP_temperature;BMP_pressure;BME280_temperature;BME280_humidity;BME280_pressure;Samples;Min_cycle;Max_cycle;Signal;HPM_P1;HPM_P2
2022/02/27 00:02:24;;;;;;;;;;;-2.70;99.90;;;;;;5074904;28;20007;-73
2022/02/27 00:04:50;;;;;;;;;;;-2.80;99.90;;;;;;5079792;28;19930;-73
2022/02/27 00:07:15;;;;;;;;;;;-2.80;99.90;;;;;;5073024;28;19908;-73
2022/02/27 00:09:41;;;;;;;;;;;-2.90;99.90;;;;;;5073946;28;19908;-73
2022/02/27 00:12:07;;;;;;;;;;;-2.80;99.90;;;;;;5073798;28;19909;-73
2022/02/27 00:14:32;;;;;;;;;;;-2.90;99.90;;;;;;5073804;28;19915;-73
2022/02/27 00:16:58;;;;;;;;;;;-2.90;99.90;;;;;;5073671;28;20321;-73
2022/02/27 00:19:23;;;;;;;;;;;-3.00;99.90;;;;;;5072446;28;19909;-73
2022/02/27 00:21:49;;;;;;;;;;;-3.00;99.90;;;;;;5073754;28;20352;-73
2022/02/27 00:24:15;;;;;;;;;;;-3.00;99.90;;;;;;5072231;28;19908;-73
2022/02/27 00:26:40;;;;;;;;;;;-3.10;99.90;;;;;;5073667;28;19909;-73
2022/02/27 00:29:06;;;;;;;;;;;-3.10;99.90;;;;;;5073719;28;19917;-73
2022/02/27 00:31:31;;;;;;;;;;;-3.10;99.90;;;;;;5068519;28;19908;-73
2022/02/27 00:33:57;;;;;;;;;;;-3.20;99.90;;;;;;5077610;28;19916;-73
2022/02/27 00:36:22;;;;;;;;;;;-3.40;99.90;;;;;;5073114;28;19915;-73
2022/02/27 00:38:48;;;;;;;;;;;-3.30;99.90;;;;;;5073313;28;19948;-73
2022/02/27 00:41:13;;;;;;;;;;;-3.10;99.90;;;;;;5073283;28;19915;-73
2022/02/27 00:43:39;;;;;;;;;;;-3.20;99.90;;;;;;5073147;28;20003;-73
2022/02/27 00:46:09;;;;;;;;;;;-3.20;99.90;;;;;;5073323;28;19948;-73
2022/02/27 00:48:35;;;;;;;;;;;-3.30;99.90;;;;;;5073262;28;19908;-73
2022/02/27 00:51:01;;;;;;;;;;;-2.90;99.90;;;;;;5073360;28;19991;-73
2022/02/27 00:53:26;;;;;;;;;;;-3.10;99.90;;;;;;5072825;28;19912;-73
2022/02/27 00:55:52;;;;;;;;;;;-3.20;99.90;;;;;;5073079;28;19908;-73
2022/02/27 00:58:17;;;;;;;;;;;-3.10;99.90;;;;;;5073116;28;20364;-73
2022/02/27 01:00:43;;;;;;;;;;;-2.80;99.90;;;;;;5072371;28;19918;-73
2022/02/27 01:03:08;;;;;;;;;;;-2.60;99.90;;;;;;5077502;28;20277;-73
2022/02/27 01:05:34;;;;;;;;;;;-2.50;99.90;;;;;;5073015;28;20315;-73
2022/02/27 01:08:00;;;;;;;;;;;-2.40;99.90;;;;;;5072808;28;19915;-73
2022/02/27 01:10:25;;;;;;;;;;;-2.60;99.90;;;;;;5072667;28;20353;-73
2022/02/27 01:12:50;;;;;;;;;;;-2.70;99.90;;;;;;5072645;28;19909;-73
2022/02/27 01:15:17;;;;;;;;;;;-2.70;99.90;;;;;;5072452;28;19908;-73
2022/02/27 01:17:42;;;;;;;;;;;-2.50;99.90;;;;;;5072854;28;19913;-73
2022/02/27 01:20:08;;;;;;;;;;;-2.40;99.90;;;;;;5072678;28;19923;-73
2022/02/27 01:22:34;;;;;;;;;;;-2.40;99.90;;;;;;5072459;28;20451;-73
2022/02/27 01:24:59;;;;;;;;;;;-2.50;99.90;;;;;;5072209;28;19908;-73
2022/02/27 01:27:25;;;;;;;;;;;-2.30;99.90;;;;;;5072459;28;19952;-73
2022/02/27 01:29:52;;;;;;;;;;;-2.30;99.90;;;;;;5072465;28;20288;-73
2022/02/27 01:32:17;;;;;;;;;;;-2.20;99.90;;;;;;5065142;28;19913;-73
2022/02/27 01:34:43;;;;;;;;;;;-2.40;99.90;;;;;;5069493;28;19916;-73
2022/02/27 01:37:09;;;;;;;;;;;-2.30;99.90;;;;;;5072119;28;19935;-73
2022/02/27 01:39:35;;;;;;;;;;;-2.10;99.90;;;;;;5070868;28;20365;-73
2022/02/27 01:42:00;;;;;;;;;;;-2.00;99.90;;;;;;5072129;28;19908;-73
2022/02/27 01:44:26;;;;;;;;;;;-2.30;99.90;;;;;;5072106;28;19909;-73
2022/02/27 01:46:54;;;;;;;;;;;-2.40;99.90;;;;;;5072239;28;19944;-73
2022/02/27 01:49:20;;;;;;;;;;;-2.60;99.90;;;;;;5071447;28;19916;-73
2022/02/27 01:51:45;;;;;;;;;;;-2.70;99.90;;;;;;5071942;28;19912;-73
2022/02/27 01:54:11;;;;;;;;;;;-2.40;99.90;;;;;;5071438;28;20373;-73
2022/02/27 01:56:36;;;;;;;;;;;-2.60;99.90;;;;;;5072237;28;19909;-73
2022/02/27 01:59:02;;;;;;;;;;;-2.80;99.90;;;;;;5071630;28;20438;-73
2022/02/27 02:01:27;;;;;;;;;;;-2.80;99.90;;;;;;5066628;28;19914;-73
2022/02/27 02:03:53;;;;;;;;;;;-2.80;99.90;;;;;;5074802;28;20281;-73
2022/02/27 02:06:18;;;;;;;;;;;-2.80;99.90;;;;;;5071916;28;19912;-73
2022/02/27 02:08:44;;;;;;;;;;;-2.70;99.90;;;;;;5071621;28;20333;-73
2022/02/27 02:11:11;;;;;;;;;;;-2.80;99.90;;;;;;5071865;28;19908;-73
2022/02/27 02:13:40;;;;;;;;;;;-2.80;99.90;;;;;;5071482;28;19995;-73
2022/02/27 02:16:05;;;;;;;;;;;-2.80;99.90;;;;;;5071870;28;19951;-73
2022/02/27 02:18:31;;;;;;;;;;;-2.70;99.90;;;;;;5070491;28;19951;-73
2022/02/27 02:20:58;;;;;;;;;;;-2.60;99.90;;;;;;5074656;28;20312;-73
2022/02/27 02:23:24;;;;;;;;;;;-2.60;99.90;;;;;;5069992;28;20361;-73
2022/02/27 02:25:49;;;;;;;;;;;-2.60;99.90;;;;;;5071681;28;19931;-73
2022/02/27 02:28:15;;;;;;;;;;;-2.60;99.90;;;;;;5071756;28;19955;-73
2022/02/27 02:30:40;;;;;;;;;;;-2.70;99.90;;;;;;5071572;28;19916;-73
2022/02/27 02:33:06;;;;;;;;;;;-2.90;99.90;;;;;;5071215;28;19915;-73
2022/02/27 02:35:31;;;;;;;;;;;-3.10;99.90;;;;;;5071639;28;19947;-73
2022/02/27 02:37:57;;;;;;;;;;;-3.20;99.90;;;;;;5069973;28;19913;-72
2022/02/27 02:40:23;;;;;;;;;;;-3.30;99.90;;;;;;5071662;28;19961;-72
2022/02/27 02:42:48;;;;;;;;;;;-3.40;99.90;;;;;;5070204;28;19948;-72
2022/02/27 02:45:14;;;;;;;;;;;-3.40;99.90;;;;;;5071484;28;20575;-72
2022/02/27 02:47:43;;;;;;;;;;;-3.50;99.90;;;;;;5071488;28;20288;-72
2022/02/27 02:50:10;;;;;;;;;;;-3.50;99.90;;;;;;5070229;28;20285;-73
2022/02/27 02:52:35;;;;;;;;;;;-3.50;99.90;;;;;;5071165;28;19930;-72
2022/02/27 02:55:03;;;;;;;;;;;-3.50;99.90;;;;;;5069805;28;20365;-73
2022/02/27 02:57:29;;;;;;;;;;;-3.50;99.90;;;;;;5070958;28;19913;-73
2022/02/27 02:59:54;;;;;;;;;;;-3.50;99.90;;;;;;5072146;28;19920;-73
2022/02/27 03:02:20;;;;;;;;;;;-3.70;99.90;;;;;;5075530;28;19908;-73
2022/02/27 03:04:45;;;;;;;;;;;-3.80;99.90;;;;;;5074875;28;19915;-73
2022/02/27 03:07:11;;;;;;;;;;;-3.80;99.90;;;;;;5075038;28;19931;-73
2022/02/27 03:09:36;;;;;;;;;;;-3.80;99.90;;;;;;5075127;28;19909;-73
2022/02/27 03:12:03;;;;;;;;;;;-3.40;99.90;;;;;;5074930;28;20373;-73
2022/02/27 03:14:28;;;;;;;;;;;-3.50;99.90;;;;;;5074994;28;19912;-73
2022/02/27 03:16:54;;;;;;;;;;;-3.60;99.90;;;;;;5074938;28;19973;-73
2022/02/27 03:19:19;;;;;;;;;;;-3.80;99.90;;;;;;5074794;28;20280;-73
2022/02/27 03:21:44;;;;;;;;;;;-3.80;99.90;;;;;;5074681;28;19915;-72
2022/02/27 03:24:10;;;;;;;;;;;-3.80;99.90;;;;;;5074638;28;20383;-73
2022/02/27 03:26:36;;;;;;;;;;;-3.90;99.90;;;;;;5074837;28;19909;-73
2022/02/27 03:29:01;;;;;;;;;;;-3.90;99.90;;;;;;5074766;28;19909;-73
2022/02/27 03:31:26;;;;;;;;;;;-3.80;99.90;;;;;;5066270;28;19999;-73
2022/02/27 03:33:52;;;;;;;;;;;-4.00;99.90;;;;;;5071890;28;20292;-73
2022/02/27 03:36:17;;;;;;;;;;;-4.00;99.90;;;;;;5074461;28;19912;-72
2022/02/27 03:38:43;;;;;;;;;;;-4.00;99.90;;;;;;5074498;28;20019;-73
2022/02/27 03:41:09;;;;;;;;;;;-4.10;99.90;;;;;;5074638;28;19912;-72
2022/02/27 03:43:34;;;;;;;;;;;-4.10;99.90;;;;;;5074250;28;19909;-73
2022/02/27 03:46:00;;;;;;;;;;;-4.20;99.90;;;;;;5074595;28;19931;-73
2022/02/27 03:48:26;;;;;;;;;;;-4.20;99.90;;;;;;5074359;28;19999;-73
2022/02/27 03:50:52;;;;;;;;;;;-4.20;99.90;;;;;;5074278;28;20007;-73
2022/02/27 03:53:18;;;;;;;;;;;-4.20;99.90;;;;;;5074061;28;19966;-73
2022/02/27 03:55:43;;;;;;;;;;;-4.20;99.90;;;;;;5074536;28;19909;-73
2022/02/27 03:58:09;;;;;;;;;;;-4.10;99.90;;;;;;5074181;28;19923;-73
2022/02/27 04:00:34;;;;;;;;;;;-4.10;99.90;;;;;;5074225;28;20392;-73
2022/02/27 04:03:00;;;;;;;;;;;-4.20;99.90;;;;;;5074313;28;19912;-73
2022/02/27 04:05:25;;;;;;;;;;;-4.30;99.90;;;;;;5073725;28;19908;-73
2022/02/27 04:07:51;;;;;;;;;;;-4.30;99.90;;;;;;5074000;28;19912;-73
2022/02/27 04:10:16;;;;;;;;;;;-4.40;99.90;;;;;;5074108;28;19935;-73
2022/02/27 04:12:42;;;;;;;;;;;-4.50;99.90;;;;;;5073186;28;19916;-73
2022/02/27 04:15:08;;;;;;;;;;;-4.50;99.90;;;;;;5073746;28;19909;-73
2022/02/27 04:17:33;;;;;;;;;;;-4.40;99.90;;;;;;5072077;28;19917;-73
2022/02/27 04:19:59;;;;;;;;;;;-4.40;99.90;;;;;;5073392;28;19912;-73
2022/02/27 04:22:25;;;;;;;;;;;-4.50;99.90;;;;;;5073837;28;19909;-73
2022/02/27 04:24:51;;;;;;;;;;;-4.50;99.90;;;;;;5073551;28;19908;-73
2022/02/27 04:27:16;;;;;;;;;;;-4.60;99.90;;;;;;5073695;28;19916;-73
2022/02/27 04:29:42;;;;;;;;;;;-4.60;99.90;;;;;;5073746;28;19912;-73
2022/02/27 04:32:08;;;;;;;;;;;-4.60;99.90;;;;;;5074294;28;20349;-73
2022/02/27 04:34:33;;;;;;;;;;;-4.50;99.90;;;;;;5073154;28;19987;-73
2022/02/27 04:36:59;;;;;;;;;;;-4.40;99.90;;;;;;5073608;28;20353;-73
2022/02/27 04:39:24;;;;;;;;;;;-4.50;99.90;;;;;;5073631;28;19958;-73
2022/02/27 04:41:49;;;;;;;;;;;-4.50;99.90;;;;;;5073640;28;20375;-73
2022/02/27 04:44:15;;;;;;;;;;;-4.60;99.90;;;;;;5073265;28;19908;-73
2022/02/27 04:46:40;;;;;;;;;;;-4.60;99.90;;;;;;5073388;28;19916;-73
2022/02/27 04:49:06;;;;;;;;;;;-4.60;99.90;;;;;;5072750;28;19908;-74
2022/02/27 04:51:31;;;;;;;;;;;-4.60;99.90;;;;;;5073050;28;20236;-73
2022/02/27 04:53:57;;;;;;;;;;;-4.60;99.90;;;;;;5071825;28;20143;-73
2022/02/27 04:56:22;;;;;;;;;;;-4.60;99.90;;;;;;5073146;28;19995;-73
2022/02/27 04:58:48;;;;;;;;;;;-4.70;99.90;;;;;;5072940;28;20520;-73
2022/02/27 05:01:14;;;;;;;;;;;-4.90;99.90;;;;;;5071820;28;19915;-73
2022/02/27 05:03:39;;;;;;;;;;;-4.70;99.90;;;;;;5075384;28;19909;-73
2022/02/27 05:06:05;;;;;;;;;;;-4.60;99.90;;;;;;5072891;28;20017;-73
2022/02/27 05:08:30;;;;;;;;;;;-4.70;99.90;;;;;;5072914;28;20327;-73
2022/02/27 05:10:56;;;;;;;;;;;-4.80;99.90;;;;;;5072903;28;19908;-73
2022/02/27 05:13:21;;;;;;;;;;;-4.80;99.90;;;;;;5071151;28;20380;-73
2022/02/27 05:15:47;;;;;;;;;;;-4.90;99.90;;;;;;5072639;28;19912;-74
2022/02/27 05:18:12;;;;;;;;;;;-4.90;99.90;;;;;;5072480;28;20357;-73
2022/02/27 05:20:38;;;;;;;;;;;-4.90;99.90;;;;;;5072703;28;19914;-73
2022/02/27 05:23:03;;;;;;;;;;;-4.80;99.90;;;;;;5071456;28;19909;-73
2022/02/27 05:25:29;;;;;;;;;;;-4.80;99.90;;;;;;5071157;28;20007;-73
2022/02/27 05:27:54;;;;;;;;;;;-4.60;99.90;;;;;;5065401;28;19908;-73
2022/02/27 05:30:20;;;;;;;;;;;-4.70;99.90;;;;;;5072516;28;19908;-73
2022/02/27 05:32:46;;;;;;;;;;;-4.60;99.90;;;;;;5078258;28;19999;-73
2022/02/27 05:35:12;;;;;;;;;;;-4.80;99.90;;;;;;5072104;28;20396;-73
2022/02/27 05:37:37;;;;;;;;;;;-4.70;99.90;;;;;;5072196;28;19912;-73
2022/02/27 05:40:04;;;;;;;;;;;-4.60;99.90;;;;;;5072304;28;20392;-73
2022/02/27 05:42:30;;;;;;;;;;;-4.60;99.90;;;;;;5072295;28;20007;-73
2022/02/27 05:44:55;;;;;;;;;;;-4.60;99.90;;;;;;5072026;28;20373;-73
2022/02/27 05:47:20;;;;;;;;;;;-4.70;99.90;;;;;;5072108;28;19962;-73
2022/02/27 05:49:46;;;;;;;;;;;-4.60;99.90;;;;;;5072098;28;19913;-73
2022/02/27 05:52:11;;;;;;;;;;;-4.50;99.90;;;;;;5071975;28;20058;-73
2022/02/27 05:54:37;;;;;;;;;;;-4.60;99.90;;;;;;5071826;28;19908;-73
2022/02/27 05:57:02;;;;;;;;;;;-4.60;99.90;;;;;;5071963;28;19908;-73
2022/02/27 05:59:28;;;;;;;;;;;-4.60;99.90;;;;;;5071986;28;19920;-73
2022/02/27 06:01:53;;;;;;;;;;;-4.70;99.90;;;;;;5067896;28;19999;-73
2022/02/27 06:04:19;;;;;;;;;;;-4.70;99.90;;;;;;5070389;28;19912;-73
2022/02/27 06:06:44;;;;;;;;;;;-4.80;99.90;;;;;;5070704;28;19963;-73
2022/02/27 06:09:10;;;;;;;;;;;-4.70;99.90;;;;;;5071845;28;19908;-73
2022/02/27 06:11:36;;;;;;;;;;;-4.70;99.90;;;;;;5071798;28;20341;-73
2022/02/27 06:14:01;;;;;;;;;;;-4.60;99.90;;;;;;5071644;28;20403;-73
2022/02/27 06:16:27;;;;;;;;;;;-4.50;99.90;;;;;;5071748;28;20277;-73
2022/02/27 06:18:52;;;;;;;;;;;-4.40;99.90;;;;;;5071579;28;19913;-73
2022/02/27 06:21:18;;;;;;;;;;;-4.40;99.90;;;;;;5071877;28;19948;-73
2022/02/27 06:23:43;;;;;;;;;;;-4.30;99.90;;;;;;5072456;28;20365;-73
2022/02/27 06:26:09;;;;;;;;;;;-4.70;99.90;;;;;;5072147;28;20408;-73
2022/02/27 06:28:34;;;;;;;;;;;-4.80;99.90;;;;;;5071992;28;19909;-73
2022/02/27 06:31:00;;;;;;;;;;;-4.90;99.90;;;;;;5065658;28;19916;-73
2022/02/27 06:33:25;;;;;;;;;;;-4.80;99.90;;;;;;5071570;28;20067;-73
2022/02/27 06:35:51;;;;;;;;;;;-4.70;99.90;;;;;;5075780;28;19909;-73
2022/02/27 06:38:16;;;;;;;;;;;-4.60;99.90;;;;;;5076247;28;19916;-73
2022/02/27 06:40:42;;;;;;;;;;;-4.50;99.90;;;;;;5075702;28;20000;-72
2022/02/27 06:43:07;;;;;;;;;;;-4.20;99.90;;;;;;5076236;28;19999;-72
2022/02/27 06:45:33;;;;;;;;;;;-4.20;99.90;;;;;;5075859;28;19908;-73
2022/02/27 06:47:59;;;;;;;;;;;-4.10;99.90;;;;;;5075358;28;20007;-73
2022/02/27 06:50:25;;;;;;;;;;;-4.10;99.90;;;;;;5074295;28;20351;-72
2022/02/27 06:52:50;;;;;;;;;;;-4.00;99.90;;;;;;5075538;28;19909;-73
2022/02/27 06:55:16;;;;;;;;;;;-4.00;99.90;;;;;;5075316;28;19909;-73
2022/02/27 06:57:43;;;;;;;;;;;-3.90;99.90;;;;;;5074058;28;20011;-73
2022/02/27 07:00:09;;;;;;;;;;;-3.80;99.90;;;;;;5073520;28;19908;-72
2022/02/27 07:02:34;;;;;;;;;;;-3.70;99.90;;;;;;5076345;28;20297;-72
2022/02/27 07:05:00;;;;;;;;;;;-3.70;99.90;;;;;;5074918;28;19909;-72
2022/02/27 07:07:25;;;;;;;;;;;-3.60;99.90;;;;;;5075490;28;20357;-72
2022/02/27 07:09:51;;;;;;;;;;;-3.50;99.90;;;;;;5075331;28;19915;-73
2022/02/27 07:12:16;;;;;;;;;;;-3.40;99.90;;;;;;5075050;28;19918;-73
2022/02/27 07:14:42;;;;;;;;;;;-3.40;99.90;;;;;;5074848;28;20281;-73
2022/02/27 07:17:08;;;;;;;;;;;-3.40;99.90;;;;;;5074707;28;19923;-73
2022/02/27 07:19:34;;;;;;;;;;;-3.00;99.90;;;;;;5074951;28;19955;-73
2022/02/27 07:21:59;;;;;;;;;;;-3.00;99.90;;;;;;5074899;28;19915;-73
2022/02/27 07:24:25;;;;;;;;;;;-2.90;99.90;;;;;;5070100;28;19909;-73
2022/02/27 07:26:50;;;;;;;;;;;-2.80;99.90;;;;;;5074794;28;19935;-73
2022/02/27 07:29:16;;;;;;;;;;;-2.60;99.90;;;;;;5074747;28;19999;-73
2022/02/27 07:31:41;;;;;;;;;;;-2.60;99.90;;;;;;5070280;28;19963;-73
2022/02/27 07:34:07;;;;;;;;;;;-2.60;99.90;;;;;;5076068;28;19973;-73
2022/02/27 07:36:33;;;;;;;;;;;-2.50;99.90;;;;;;5074654;28;19947;-73
2022/02/27 07:38:59;;;;;;;;;;;-2.40;99.90;;;;;;5074583;28;19923;-73
2022/02/27 07:41:24;;;;;;;;;;;-2.30;99.90;;;;;;5074625;28;19908;-73
2022/02/27 07:43:50;;;;;;;;;;;-2.20;99.90;;;;;;5073041;28;20338;-73
2022/02/27 07:46:16;;;;;;;;;;;-2.10;99.90;;;;;;5073294;28;19908;-73
2022/02/27 07:48:42;;;;;;;;;;;-2.00;99.90;;;;;;5074449;28;19908;-73
2022/02/27 07:51:07;;;;;;;;;;;-1.80;99.90;;;;;;5075053;28;19912;-73
2022/02/27 07:53:33;;;;;;;;;;;-1.40;99.90;;;;;;5074711;28;19908;-73
2022/02/27 07:55:58;;;;;;;;;;;-1.00;99.90;;;;;;5074677;28;19912;-73
2022/02/27 07:58:23;;;;;;;;;;;-0.70;99.90;;;;;;5074447;28;20404;-73
2022/02/27 08:00:49;;;;;;;;;;;-0.50;99.90;;;;;;5068714;28;19920;-72
2022/02/27 08:03:14;;;;;;;;;;;-0.30;99.90;;;;;;5084019;28;20377;-73
2022/02/27 08:05:40;;;;;;;;;;;-0.30;99.90;;;;;;5074684;28;19999;-72
2022/02/27 08:08:06;;;;;;;;;;;-0.20;99.90;;;;;;5073039;28;19964;-72
2022/02/27 08:10:31;;;;;;;;;;;-0.10;99.90;;;;;;5074138;28;19913;-73
2022/02/27 08:12:56;;;;;;;;;;;0.00;99.90;;;;;;5073922;28;19999;-73
2022/02/27 08:15:22;;;;;;;;;;;0.10;99.90;;;;;;5073638;28;19915;-72
2022/02/27 08:17:51;;;;;;;;;;;0.10;99.90;;;;;;5074397;28;19934;-72
2022/02/27 08:20:16;;;;;;;;;;;0.40;99.90;;;;;;5067747;28;19909;-73
2022/02/27 08:22:42;;;;;;;;;;;0.40;99.90;;;;;;5067470;28;19915;-72
2022/02/27 08:25:08;;;;;;;;;;;0.80;99.90;;;;;;5073567;28;19909;-72
2022/02/27 08:27:34;;;;;;;;;;;0.80;99.90;;;;;;5073762;28;19962;-73
2022/02/27 08:29:59;;;;;;;;;;;1.40;99.90;;;;;;5073712;28;20361;-73
2022/02/27 08:32:25;;;;;;;;;;;3.70;99.90;;;;;;5075978;28;19912;-73
2022/02/27 08:34:50;;;;;;;;;;;5.60;99.90;;;;;;5079244;28;19909;-73
2022/02/27 08:37:16;;;;;;;;;;;6.20;97.30;;;;;;5073558;28;19909;-73
2022/02/27 08:39:41;;;;;;;;;;;6.80;95.40;;;;;;5074510;28;19908;-72
2022/02/27 08:42:07;;;;;;;;;;;7.30;93.00;;;;;;5074383;28;19931;-73
2022/02/27 08:44:33;;;;;;;;;;;7.50;92.60;;;;;;5074041;28;19912;-73
2022/02/27 08:46:59;;;;;;;;;;;7.10;91.10;;;;;;5073881;28;20028;-73
2022/02/27 08:49:25;;;;;;;;;;;8.10;91.60;;;;;;5073752;28;20361;-74
2022/02/27 08:51:51;;;;;;;;;;;8.60;89.90;;;;;;5073399;28;19952;-74
2022/02/27 08:54:17;;;;;;;;;;;8.90;88.70;;;;;;5073304;28;19915;-74
2022/02/27 08:56:43;;;;;;;;;;;8.80;86.20;;;;;;5073832;28;19913;-74
2022/02/27 08:59:08;;;;;;;;;;;9.30;86.60;;;;;;5072934;28;19923;-74
2022/02/27 09:01:34;;;;;;;;;;;8.50;85.50;;;;;;5072887;28;19913;-74
2022/02/27 09:03:59;;;;;;;;;;;9.60;85.30;;;;;;5075540;28;19919;-74
2022/02/27 09:06:25;;;;;;;;;;;10.70;79.20;;;;;;5073029;28;19915;-74
2022/02/27 09:08:50;;;;;;;;;;;8.60;80.90;;;;;;5072950;28;19916;-74
2022/02/27 09:11:16;;;;;;;;;;;9.60;81.40;;;;;;5072730;28;20433;-74
2022/02/27 09:13:42;;;;;;;;;;;9.30;79.70;;;;;;5072543;28;19909;-74
2022/02/27 09:16:07;;;;;;;;;;;9.40;79.90;;;;;;5072720;28;19981;-74
2022/02/27 09:18:33;;;;;;;;;;;10.20;77.30;;;;;;5072613;28;20369;-74
2022/02/27 09:20:59;;;;;;;;;;;9.80;75.80;;;;;;5073927;28;19909;-74
2022/02/27 09:23:24;;;;;;;;;;;8.60;80.60;;;;;;5072302;28;19909;-74
2022/02/27 09:25:50;;;;;;;;;;;7.60;78.80;;;;;;5072664;28;20050;-74
2022/02/27 09:28:16;;;;;;;;;;;9.70;78.60;;;;;;5072446;28;19916;-75
2022/02/27 09:30:42;;;;;;;;;;;9.60;72.90;;;;;;5071592;28;20006;-74
2022/02/27 09:33:08;;;;;;;;;;;9.50;75.60;;;;;;5077071;28;20070;-74
2022/02/27 09:35:33;;;;;;;;;;;10.60;71.70;;;;;;5071170;28;20399;-75
2022/02/27 09:37:59;;;;;;;;;;;10.60;70.60;;;;;;5072230;28;19916;-75
2022/02/27 09:40:25;;;;;;;;;;;11.70;70.50;;;;;;5072435;28;19931;-75
2022/02/27 09:42:52;;;;;;;;;;;11.50;68.20;;;;;;5072822;28;19982;-75
2022/02/27 09:45:18;;;;;;;;;;;11.50;68.60;;;;;;5075807;28;19919;-74
2022/02/27 09:47:44;;;;;;;;;;;10.50;69.40;;;;;;5072349;28;19912;-74
2022/02/27 09:50:10;;;;;;;;;;;10.80;67.40;;;;;;5072314;28;20357;-75
2022/02/27 09:52:35;;;;;;;;;;;11.60;67.00;;;;;;5072165;28;19912;-74
2022/02/27 09:55:01;;;;;;;;;;;11.40;63.80;;;;;;5071992;28;19908;-75
2022/02/27 09:57:26;;;;;;;;;;;12.70;63.20;;;;;;5071870;28;19920;-75
2022/02/27 09:59:52;;;;;;;;;;;12.40;61.30;;;;;;5070661;28;19915;-75
2022/02/27 10:02:17;;;;;;;;;;;11.40;62.10;;;;;;5071705;28;20027;-74
2022/02/27 10:04:48;;;;;;;;;;;12.40;58.90;;;;;;5077907;28;19908;-75
2022/02/27 10:07:17;;;;;;;;;;;12.50;62.20;;;;;;5071903;28;19995;-75
2022/02/27 10:09:44;;;;;;;;;;;13.20;58.20;;;;;;5071555;28;19909;-75
2022/02/27 10:12:12;;;;;;;;;;;13.40;58.60;;;;;;5071904;28;19916;-74
2022/02/27 10:14:38;;;;;;;;;;;11.40;58.00;;;;;;5071837;28;19916;-75
2022/02/27 10:17:04;;;;;;;;;;;12.10;60.00;;;;;;5071748;28;19923;-75
2022/02/27 10:19:30;;;;;;;;;;;11.60;57.90;;;;;;5071795;28;20448;-75
2022/02/27 10:21:56;;;;;;;;;;;12.50;57.10;;;;;;5071444;28;19908;-75
2022/02/27 10:24:21;;;;;;;;;;;12.80;57.50;;;;;;5072470;28;19915;-75
2022/02/27 10:26:48;;;;;;;;;;;13.70;52.80;;;;;;5071587;28;19985;-75
2022/02/27 10:29:18;;;;;;;;;;;12.80;54.90;;;;;;5070454;28;19916;-75
2022/02/27 10:31:45;;;;;;;;;;;11.30;55.20;;;;;;5063148;28;19908;-74
2022/02/27 10:34:21;;;;;;;;;;;11.10;58.30;;;;;;5073431;28;20288;-75
2022/02/27 10:36:54;;;;;;;;;;;11.40;56.20;;;;;;5071660;28;19918;-75
2022/02/27 10:39:26;;;;;;;;;;;11.30;57.20;;;;;;5071351;28;19962;-73
2022/02/27 10:41:51;;;;;;;;;;;11.20;56.70;;;;;;5071521;28;19917;-73
2022/02/27 10:44:21;;;;;;;;;;;11.90;54.90;;;;;;5071376;28;19919;-73
2022/02/27 10:46:46;;;;;;;;;;;11.00;55.60;;;;;;5071196;28;19908;-74
2022/02/27 10:49:12;;;;;;;;;;;14.50;54.70;;;;;;5071507;28;19924;-74
2022/02/27 10:51:37;;;;;;;;;;;12.60;52.30;;;;;;5071253;28;20373;-74
2022/02/27 10:54:03;;;;;;;;;;;13.50;51.40;;;;;;5069963;28;19912;-74
2022/02/27 10:56:32;;;;;;;;;;;13.00;51.50;;;;;;5071460;28;20429;-74
2022/02/27 10:58:58;;;;;;;;;;;15.10;49.40;;;;;;5071313;28;19960;-74
2022/02/27 11:01:25;;;;;;;;;;;13.40;49.00;;;;;;5070299;28;20333;-74
2022/02/27 11:03:52;;;;;;;;;;;13.40;50.80;;;;;;5076708;28;19908;-74
2022/02/27 11:06:17;;;;;;;;;;;14.00;52.20;;;;;;5072091;28;20344;-74
2022/02/27 11:08:43;;;;;;;;;;;11.20;50.30;;;;;;5072205;28;19956;-74
2022/02/27 11:11:10;;;;;;;;;;;12.50;51.40;;;;;;5071713;28;20006;-74
2022/02/27 11:13:36;;;;;;;;;;;13.00;50.20;;;;;;5072158;28;19938;-74
2022/02/27 11:16:02;;;;;;;;;;;13.10;51.90;;;;;;5072260;28;20015;-74
2022/02/27 11:18:28;;;;;;;;;;;13.20;50.00;;;;;;5072631;28;19913;-74
2022/02/27 11:20:54;;;;;;;;;;;13.00;52.10;;;;;;5073587;28;19908;-74
2022/02/27 11:23:20;;;;;;;;;;;13.00;51.10;;;;;;5075757;28;19917;-74
2022/02/27 11:25:45;;;;;;;;;;;12.40;54.20;;;;;;5076293;28;20001;-75
2022/02/27 11:28:13;;;;;;;;;;;12.10;51.60;;;;;;5075689;28;19915;-74
2022/02/27 11:30:40;;;;;;;;;;;12.70;51.20;;;;;;5073249;28;20249;-74
2022/02/27 11:33:07;;;;;;;;;;;12.70;52.00;;;;;;5076908;28;20007;-75
2022/02/27 11:35:44;;;;;;;;;;;11.40;54.00;;;;;;5078632;28;19915;-75
2022/02/27 11:38:11;;;;;;;;;;;14.90;50.80;;;;;;5074958;28;19916;-75
2022/02/27 11:40:41;;;;;;;;;;;12.50;53.40;;;;;;5075142;28;19909;-75
2022/02/27 11:43:07;;;;;;;;;;;12.70;51.40;;;;;;5074817;28;20000;-75
2022/02/27 11:45:36;;;;;;;;;;;13.50;53.60;;;;;;5075126;28;20417;-75
2022/02/27 11:48:02;;;;;;;;;;;13.90;50.50;;;;;;5074801;28;19909;-75
2022/02/27 11:50:29;;;;;;;;;;;13.60;50.90;;;;;;5075180;28;19908;-75
2022/02/27 11:52:55;;;;;;;;;;;12.80;51.00;;;;;;5074553;28;19961;-75
2022/02/27 11:55:39;;;;;;;;;;;9.70;56.30;;;;;;5074333;28;19912;-75
2022/02/27 11:58:04;;;;;;;;;;;7.60;62.40;;;;;;5068270;28;20361;-75
2022/02/27 12:00:37;;;;;;;;;;;6.60;66.00;;;;;;5074372;28;19908;-75
2022/02/27 12:03:22;;;;;;;;;;;6.30;67.10;;;;;;5083932;28;19908;-75
2022/02/27 12:05:48;;;;;;;;;;;6.00;68.20;;;;;;5075336;28;19990;-75
2022/02/27 12:08:16;;;;;;;;;;;6.00;68.20;;;;;;5074412;28;19913;-75
2022/02/27 12:10:44;;;;;;;;;;;6.00;68.60;;;;;;5072801;28;19912;-74
2022/02/27 12:13:28;;;;;;;;;;;6.00;70.60;;;;;;5073962;28;19920;-75
2022/02/27 12:16:23;;;;;;;;;;;6.00;69.80;;;;;;5074087;28;19923;-75
2022/02/27 12:18:56;;;;;;;;;;;6.00;72.30;;;;;;5056713;28;19912;-74
2022/02/27 12:21:31;;;;;;;;;;;6.00;72.00;;;;;;5073856;28;19908;-75
2022/02/27 12:24:04;;;;;;;;;;;6.00;73.90;;;;;;5074384;28;19912;-75
2022/02/27 12:26:47;;;;;;;;;;;6.00;74.20;;;;;;5074503;28;19909;-75
2022/02/27 12:29:20;;;;;;;;;;;5.80;74.40;;;;;;5053992;28;19909;-74
2022/02/27 12:31:45;;;;;;;;;;;6.10;74.90;;;;;;5075531;28;19915;-76
2022/02/27 12:34:12;;;;;;;;;;;6.10;75.00;;;;;;5084055;28;19908;-75
2022/02/27 12:36:38;;;;;;;;;;;5.70;73.50;;;;;;5074179;28;19913;-75
2022/02/27 12:39:12;;;;;;;;;;;5.70;73.90;;;;;;5073902;28;19974;-75
2022/02/27 12:41:40;;;;;;;;;;;6.00;75.00;;;;;;5073917;28;20365;-75
2022/02/27 12:44:07;;;;;;;;;;;6.00;74.00;;;;;;5072210;28;20285;-76
2022/02/27 12:46:33;;;;;;;;;;;5.80;74.30;;;;;;5072365;28;20404;-76
2022/02/27 12:51:42;;;;;;;;;;;5.90;73.60;;;;;;5073929;28;19915;-76
2022/02/27 12:54:12;;;;;;;;;;;5.90;72.00;;;;;;5073425;28;20241;-76
2022/02/27 12:56:37;;;;;;;;;;;6.00;71.70;;;;;;5074146;28;19962;-76
2022/02/27 12:59:03;;;;;;;;;;;6.00;70.80;;;;;;5073785;28;19964;-75
2022/02/27 13:01:32;;;;;;;;;;;6.00;72.10;;;;;;5073219;28;19908;-75
2022/02/27 13:04:01;;;;;;;;;;;6.00;70.80;;;;;;5073144;28;19913;-76
2022/02/27 13:06:26;;;;;;;;;;;5.90;70.50;;;;;;5071801;28;19909;-75
2022/02/27 13:08:52;;;;;;;;;;;5.80;73.00;;;;;;5072864;28;19916;-75
2022/02/27 13:11:36;;;;;;;;;;;5.80;73.00;;;;;;5072678;28;20320;-75
2022/02/27 13:14:03;;;;;;;;;;;5.90;71.70;;;;;;5072710;28;20011;-75
2022/02/27 13:16:28;;;;;;;;;;;5.70;70.90;;;;;;5072793;28;19917;-75
2022/02/27 13:18:54;;;;;;;;;;;5.80;71.00;;;;;;5072705;28;19935;-75
2022/02/27 13:21:19;;;;;;;;;;;5.90;70.90;;;;;;5072639;28;20015;-75
2022/02/27 13:23:45;;;;;;;;;;;5.80;68.20;;;;;;5071193;28;19909;-75
2022/02/27 13:26:10;;;;;;;;;;;5.90;69.90;;;;;;5072656;28;20356;-75
2022/02/27 13:28:36;;;;;;;;;;;6.10;70.00;;;;;;5071299;28;20007;-75
2022/02/27 13:31:14;;;;;;;;;;;6.00;69.00;;;;;;5066302;28;19908;-75
2022/02/27 13:33:40;;;;;;;;;;;6.00;68.60;;;;;;5066797;28;19958;-75
2022/02/27 13:36:07;;;;;;;;;;;6.00;69.70;;;;;;5072351;28;20281;-75
2022/02/27 13:38:33;;;;;;;;;;;6.00;71.70;;;;;;5072029;28;19912;-75
2022/02/27 13:40:59;;;;;;;;;;;6.00;69.80;;;;;;5072331;28;19989;-75
2022/02/27 13:43:24;;;;;;;;;;;6.00;69.70;;;;;;5071744;28;20392;-75
2022/02/27 13:45:51;;;;;;;;;;;5.90;69.30;;;;;;5070459;28;19909;-75
2022/02/27 13:48:27;;;;;;;;;;;5.70;70.70;;;;;;5072608;28;19912;-75
2022/02/27 13:50:52;;;;;;;;;;;5.90;70.00;;;;;;5071986;28;20381;-75
2022/02/27 13:53:19;;;;;;;;;;;6.00;70.00;;;;;;5071902;28;19909;-75
2022/02/27 13:55:46;;;;;;;;;;;5.80;71.50;;;;;;5072177;28;19954;-75
2022/02/27 13:58:38;;;;;;;;;;;5.70;72.60;;;;;;5072316;28;19913;-77
2022/02/27 14:01:05;;;;;;;;;;;5.70;72.60;;;;;;5065995;28;19913;-75
2022/02/27 14:03:37;;;;;;;;;;;6.00;72.90;;;;;;5072095;28;19954;-75
2022/02/27 14:06:04;;;;;;;;;;;6.00;73.90;;;;;;5072037;28;19995;-75
2022/02/27 14:08:30;;;;;;;;;;;5.90;72.40;;;;;;5070720;28;19919;-75
2022/02/27 14:11:05;;;;;;;;;;;5.80;73.70;;;;;;5072638;28;19932;-73
2022/02/27 14:13:31;;;;;;;;;;;5.60;74.60;;;;;;5071830;28;19908;-73
2022/02/27 14:16:03;;;;;;;;;;;5.60;75.10;;;;;;5071881;28;20285;-74
2022/02/27 14:18:35;;;;;;;;;;;5.50;74.50;;;;;;5072033;28;20336;-75
2022/02/27 14:21:15;;;;;;;;;;;5.60;74.40;;;;;;5073201;28;20350;-74